Station History

Weather Underground - logo

Station Historical Data
Daily Summary for November 21, 2017 Units:  English    Metric   Both
« Previous Day
Next Day »
Daily Weekly Monthly Yearly Custom
  High: Low: Average:
Temperature: 72.6 °F 48.4 °F 58 °F
Dew Point: 53.5 °F 45.9 °F 49.3 °F
Humidity: 92 % 42 % 75 %
Wind Speed: 2.3 mph 0.0 mph 0.2 mph
Wind Gust: 2.3 mph - -
Wind:- - SW
Pressure: 30.24 in 30.10 in -
Precipitation: 0.00 in    
Historical Graphs
 
 
Tabular Data for November 21, 2017
Time Temperature Dew Point Pressure Wind Wind Speed Wind Gust Humidity Rainfall Rate (Hourly)
00:08 51.6 °F 48.2 °F 30.14 in Calm     88 % 0.00 in
00:13 51.9 °F 48.2 °F 30.14 in Calm     87 % 0.00 in
00:18 51.9 °F 48.2 °F 30.14 in Calm     87 % 0.00 in
00:23 51.8 °F 48.1 °F 30.14 in Calm     87 % 0.00 in
00:28 51.5 °F 47.8 °F 30.15 in Calm     87 % 0.00 in
00:38 50.7 °F 47.3 °F 30.14 in Calm     88 % 0.00 in
00:43 50.3 °F 47.2 °F 30.15 in Calm     89 % 0.00 in
00:53 49.9 °F 47.1 °F 30.15 in Calm     90 % 0.00 in
00:58 49.8 °F 47.0 °F 30.15 in Calm     90 % 0.00 in
01:08 49.9 °F 47.4 °F 30.15 in Calm     91 % 0.00 in
01:18 50.0 °F 47.5 °F 30.15 in Calm     91 % 0.00 in
01:33 50.5 °F 47.7 °F 30.14 in Calm     90 % 0.00 in
01:38 50.5 °F 47.7 °F 30.14 in Calm     90 % 0.00 in
01:43 50.5 °F 47.7 °F 30.15 in Calm     90 % 0.00 in
01:58 50.2 °F 47.4 °F 30.15 in Calm     90 % 0.00 in
02:03 50.1 °F 47.3 °F 30.14 in Calm     90 % 0.00 in
02:08 50.1 °F 47.3 °F 30.14 in Calm     90 % 0.00 in
02:23 50.3 °F 47.5 °F 30.15 in Calm     90 % 0.00 in
02:28 50.3 °F 47.5 °F 30.15 in Calm     90 % 0.00 in
02:33 50.3 °F 47.5 °F 30.15 in Calm     90 % 0.00 in
02:38 50.0 °F 47.2 °F 30.15 in Calm     90 % 0.00 in
02:43 49.9 °F 47.4 °F 30.15 in Calm     91 % 0.00 in
02:53 50.3 °F 47.8 °F 30.15 in Calm     91 % 0.00 in
02:58 50.5 °F 47.7 °F 30.16 in Calm     90 % 0.00 in
03:03 50.6 °F 47.8 °F 30.15 in Calm     90 % 0.00 in
03:09 50.8 °F 48.0 °F 30.15 in Calm     90 % 0.00 in
03:14 50.8 °F 48.0 °F 30.15 in Calm     90 % 0.00 in
03:19 51.1 °F 48.0 °F 30.15 in Calm     89 % 0.00 in
03:24 51.1 °F 47.7 °F 30.15 in Calm     88 % 0.00 in
03:29 51.0 °F 47.6 °F 30.15 in Calm     88 % 0.00 in
03:39 50.3 °F 47.2 °F 30.15 in Calm     89 % 0.00 in
03:44 50.5 °F 47.7 °F 30.15 in Calm     90 % 0.00 in
03:49 50.8 °F 47.7 °F 30.15 in Calm     89 % 0.00 in
03:54 50.9 °F 47.5 °F 30.15 in Calm     88 % 0.00 in
03:59 50.7 °F 47.3 °F 30.15 in Calm     88 % 0.00 in
04:14 51.7 °F 48.0 °F 30.16 in Calm     87 % 0.00 in
04:19 51.8 °F 48.1 °F 30.16 in Calm     87 % 0.00 in
04:24 51.8 °F 47.7 °F 30.15 in Calm     86 % 0.00 in
04:29 51.8 °F 48.1 °F 30.16 in Calm     87 % 0.00 in
04:34 51.9 °F 48.2 °F 30.15 in Calm     87 % 0.00 in
04:44 51.5 °F 47.8 °F 30.15 in Calm     87 % 0.00 in
04:49 51.4 °F 47.7 °F 30.15 in Calm     87 % 0.00 in
04:54 51.4 °F 48.0 °F 30.15 in Calm     88 % 0.00 in
04:59 51.3 °F 48.2 °F 30.16 in Calm     89 % 0.00 in
05:04 50.9 °F 47.5 °F 30.16 in Calm     88 % 0.00 in
05:09 50.5 °F 47.4 °F 30.16 in Calm     89 % 0.00 in
05:19 49.9 °F 46.8 °F 30.16 in Calm     89 % 0.00 in
05:24 49.8 °F 47.0 °F 30.16 in Calm     90 % 0.00 in
05:34 49.7 °F 47.2 °F 30.16 in Calm     91 % 0.00 in
05:40 49.6 °F 47.1 °F 30.16 in Calm     91 % 0.00 in
05:45 49.7 °F 47.2 °F 30.17 in Calm     91 % 0.00 in
05:55 50.1 °F 47.3 °F 30.17 in Calm     90 % 0.00 in
06:00 50.1 °F 47.3 °F 30.17 in Calm     90 % 0.00 in
06:10 49.9 °F 47.1 °F 30.17 in Calm     90 % 0.00 in
06:15 49.9 °F 47.1 °F 30.17 in Calm     90 % 0.00 in
06:20 49.7 °F 46.9 °F 30.17 in Calm     90 % 0.00 in
06:25 49.7 °F 46.9 °F 30.17 in Calm     90 % 0.00 in
06:30 49.6 °F 46.8 °F 30.17 in Calm     90 % 0.00 in
06:35 49.4 °F 46.6 °F 30.18 in Calm     90 % 0.00 in
06:40 49.1 °F 46.3 °F 30.18 in Calm     90 % 0.00 in
06:45 48.7 °F 45.9 °F 30.18 in Calm     90 % 0.00 in
06:50 48.6 °F 46.1 °F 30.18 in Calm     91 % 0.00 in
06:55 48.5 °F 46.0 °F 30.19 in Calm     91 % 0.00 in
07:00 48.4 °F 45.9 °F 30.19 in Calm     91 % 0.00 in
07:05 48.5 °F 46.3 °F 30.19 in Calm     92 % 0.00 in
07:10 48.7 °F 46.5 °F 30.20 in Calm     92 % 0.00 in
07:15 48.9 °F 46.7 °F 30.19 in Calm     92 % 0.00 in
07:20 49.2 °F 47.0 °F 30.20 in Calm     92 % 0.00 in
07:30 49.7 °F 47.2 °F 30.20 in Calm     91 % 0.00 in
07:35 49.8 °F 47.3 °F 30.21 in Calm     91 % 0.00 in
07:40 49.9 °F 47.4 °F 30.21 in Calm     91 % 0.00 in
07:46 50.0 °F 47.5 °F 30.22 in Calm     91 % 0.00 in
07:56 50.8 °F 48.3 °F 30.22 in Calm     91 % 0.00 in
08:06 51.7 °F 48.9 °F 30.23 in Calm     90 % 0.00 in
08:11 52.2 °F 49.4 °F 30.23 in Calm     90 % 0.00 in
08:16 53.1 °F 49.6 °F 30.23 in Calm     88 % 0.00 in
08:21 53.8 °F 50.0 °F 30.23 in Calm     87 % 0.00 in
08:26 54.9 °F 50.5 °F 30.23 in Calm     85 % 0.00 in
08:31 56.3 °F 50.9 °F 30.23 in Calm     82 % 0.00 in
08:36 56.9 °F 50.8 °F 30.23 in Calm     80 % 0.00 in
08:41 57.3 °F 51.2 °F 30.23 in Calm     80 % 0.00 in
08:51 57.5 °F 51.4 °F 30.22 in SE 1.2 mph   80 % 0.00 in
09:06 57.8 °F 51.0 °F 30.23 in Calm     78 % 0.00 in
09:11 58.0 °F 51.2 °F 30.23 in Calm     78 % 0.00 in
09:16 57.9 °F 50.7 °F 30.23 in ESE 1.2 mph 1.2 mph 77 % 0.00 in
09:21 57.8 °F 51.0 °F 30.23 in Calm     78 % 0.00 in
09:26 57.8 °F 50.6 °F 30.23 in Calm     77 % 0.00 in
09:31 58.0 °F 50.8 °F 30.23 in Calm     77 % 0.00 in
09:36 58.3 °F 50.8 °F 30.23 in Calm     76 % 0.00 in
09:51 60.5 °F 51.0 °F 30.24 in Calm   0.1 mph 71 % 0.00 in
09:56 60.8 °F 51.3 °F 30.24 in Calm     71 % 0.00 in
10:01 61.6 °F 52.1 °F 30.24 in Calm     71 % 0.00 in
10:06 62.3 °F 51.6 °F 30.23 in Calm     68 % 0.00 in
10:12 62.7 °F 52.0 °F 30.23 in Calm     68 % 0.00 in
10:17 62.8 °F 50.9 °F 30.23 in ESE 1.2 mph 1.2 mph 65 % 0.00 in
10:22 63.0 °F 51.0 °F 30.23 in Calm     65 % 0.00 in
10:32 63.4 °F 51.4 °F 30.22 in Calm     65 % 0.00 in
10:42 63.9 °F 51.1 °F 30.22 in Calm     63 % 0.00 in
10:47 64.1 °F 51.2 °F 30.22 in Calm     63 % 0.00 in
10:52 64.2 °F 51.8 °F 30.21 in Calm     64 % 0.00 in
11:02 64.6 °F 51.3 °F 30.21 in Calm     62 % 0.00 in
11:07 64.9 °F 52.0 °F 30.21 in Calm     63 % 0.00 in
11:12 65.2 °F 51.8 °F 30.20 in NW 1.2 mph 1.2 mph 62 % 0.00 in
11:22 65.6 °F 51.8 °F 30.20 in NNW 2.3 mph 2.3 mph 61 % 0.00 in
11:27 66.0 °F 52.6 °F 30.20 in WNW 1.2 mph 1.2 mph 62 % 0.00 in
11:32 66.4 °F 53.4 °F 30.20 in North 1.2 mph   63 % 0.00 in
11:37 66.9 °F 53.5 °F 30.20 in Calm     62 % 0.00 in
11:42 66.9 °F 52.6 °F 30.19 in South 1.2 mph   60 % 0.00 in
11:47 67.0 °F 53.1 °F 30.19 in Calm   0.2 mph 61 % 0.00 in
11:52 67.2 °F 52.8 °F 30.18 in SE 1.2 mph 1.2 mph 60 % 0.00 in
11:57 67.3 °F 52.9 °F 30.18 in ESE 1.2 mph   60 % 0.00 in
12:02 67.6 °F 53.2 °F 30.18 in SE 1.2 mph   60 % 0.00 in
12:07 67.9 °F 52.1 °F 30.18 in SE 1.2 mph   57 % 0.00 in
12:12 68.4 °F 53.0 °F 30.17 in South 1.2 mph 1.2 mph 58 % 0.00 in
12:17 68.8 °F 52.5 °F 30.17 in ENE 2.3 mph 2.3 mph 56 % 0.00 in
12:22 69.1 °F 53.2 °F 30.17 in Calm     57 % 0.00 in
12:31 69.6 °F 51.7 °F 30.17 in NE 1.2 mph 1.2 mph 53 % 0.00 in
12:37 69.8 °F 52.4 °F 30.17 in Calm     54 % 0.00 in
12:47 70.3 °F 51.3 °F 30.16 in SE 1.2 mph   51 % 0.00 in
12:49 70.4 °F 51.9 °F 30.16 in Calm   0.2 mph 52 % 0.00 in
12:54 70.5 °F 51.5 °F 30.16 in ESE 1.2 mph 1.2 mph 51 % 0.00 in
12:59 70.4 °F 50.9 °F 30.15 in Calm     50 % 0.00 in
13:04 70.5 °F 50.4 °F 30.15 in West 1.2 mph 1.2 mph 49 % 0.00 in
13:14 70.3 °F 51.3 °F 30.15 in Calm     51 % 0.00 in
13:19 70.3 °F 51.3 °F 30.14 in Calm     51 % 0.00 in
13:24 70.2 °F 50.1 °F 30.14 in WNW 1.2 mph 1.2 mph 49 % 0.00 in
13:39 70.4 °F 50.3 °F 30.13 in Calm     49 % 0.00 in
13:49 70.9 °F 48.5 °F 30.13 in WSW 1.2 mph   45 % 0.00 in
13:54 71.4 °F 50.7 °F 30.13 in SE 1.2 mph   48 % 0.00 in
13:59 71.8 °F 50.5 °F 30.12 in NNE 1.2 mph 1.2 mph 47 % 0.00 in
14:04 71.9 °F 50.6 °F 30.12 in Calm     47 % 0.00 in
14:09 71.8 °F 49.9 °F 30.12 in WNW 1.2 mph   46 % 0.00 in
14:19 72.5 °F 49.9 °F 30.12 in Calm     45 % 0.00 in
14:29 72.6 °F 48.2 °F 30.11 in WNW 1.2 mph 1.2 mph 42 % 0.00 in
14:39 72.1 °F 48.4 °F 30.11 in SW 1.2 mph 1.2 mph 43 % 0.00 in
14:44 72.1 °F 47.7 °F 30.11 in WNW 1.2 mph   42 % 0.00 in
14:49 72.2 °F 47.8 °F 30.11 in NW 2.3 mph 2.3 mph 42 % 0.00 in
14:54 72.2 °F 48.5 °F 30.11 in NW 2.0 mph 2.0 mph 43 % 0.00 in
14:59 72.0 °F 47.6 °F 30.11 in West 1.2 mph 1.2 mph 42 % 0.00 in
15:04 71.9 °F 49.4 °F 30.11 in NNW 1.2 mph 1.2 mph 45 % 0.00 in
15:09 71.8 °F 48.1 °F 30.11 in WNW 1.2 mph 1.2 mph 43 % 0.00 in
15:14 71.6 °F 48.5 °F 30.11 in NNW 1.2 mph 1.2 mph 44 % 0.00 in
15:24 71.4 °F 47.7 °F 30.10 in WNW 1.2 mph 1.2 mph 43 % 0.00 in
15:29 71.3 °F 47.6 °F 30.10 in WNW 1.2 mph   43 % 0.00 in
15:34 71.1 °F 48.1 °F 30.10 in Calm     44 % 0.00 in
15:39 71.0 °F 48.6 °F 30.10 in Calm     45 % 0.00 in
15:45 70.8 °F 49.0 °F 30.10 in Calm     46 % 0.00 in
16:00 70.1 °F 48.9 °F 30.10 in Calm     47 % 0.00 in
16:05 69.8 °F 49.8 °F 30.10 in WNW 1.2 mph   49 % 0.00 in
16:10 69.5 °F 49.5 °F 30.10 in Calm     49 % 0.00 in
16:15 69.1 °F 49.7 °F 30.10 in Calm     50 % 0.00 in
16:20 68.8 °F 50.5 °F 30.10 in NW 1.2 mph 1.2 mph 52 % 0.00 in
16:25 68.5 °F 50.2 °F 30.11 in North 1.2 mph 1.2 mph 52 % 0.00 in
16:30 68.1 °F 50.8 °F 30.11 in Calm     54 % 0.00 in
16:35 67.7 °F 50.9 °F 30.11 in Calm     55 % 0.00 in
16:45 67.2 °F 50.5 °F 30.11 in Calm     55 % 0.00 in
16:50 66.8 °F 50.6 °F 30.11 in Calm     56 % 0.00 in
16:55 66.4 °F 50.7 °F 30.11 in Calm     57 % 0.00 in
17:00 66.0 °F 50.8 °F 30.11 in Calm     58 % 0.00 in
17:05 65.7 °F 50.5 °F 30.11 in Calm     58 % 0.00 in
17:10 65.2 °F 51.0 °F 30.11 in Calm     60 % 0.00 in
17:15 64.5 °F 50.7 °F 30.12 in Calm     61 % 0.00 in
17:20 63.9 °F 51.1 °F 30.12 in Calm     63 % 0.00 in
17:30 63.0 °F 51.0 °F 30.12 in Calm     65 % 0.00 in
17:35 62.4 °F 50.9 °F 30.12 in Calm     66 % 0.00 in
17:40 61.8 °F 50.7 °F 30.12 in Calm     67 % 0.00 in
17:45 61.3 °F 50.6 °F 30.12 in Calm     68 % 0.00 in
17:50 60.8 °F 51.0 °F 30.13 in Calm     70 % 0.00 in
18:05 59.5 °F 50.8 °F 30.13 in Calm     73 % 0.00 in
18:10 59.1 °F 50.8 °F 30.13 in Calm     74 % 0.00 in
18:11 59.0 °F 50.7 °F 30.13 in Calm     74 % 0.00 in
18:16 59.0 °F 51.1 °F 30.13 in Calm     75 % 0.00 in
18:36 58.0 °F 51.2 °F 30.14 in Calm     78 % 0.00 in
18:46 57.8 °F 51.0 °F 30.14 in Calm     78 % 0.00 in
18:51 58.0 °F 50.8 °F 30.14 in Calm     77 % 0.00 in
18:56 58.0 °F 50.8 °F 30.14 in Calm     77 % 0.00 in
19:01 58.0 °F 50.8 °F 30.14 in Calm     77 % 0.00 in
19:06 57.8 °F 50.3 °F 30.14 in Calm     76 % 0.00 in
19:12 57.5 °F 51.0 °F 30.14 in Calm     79 % 0.00 in
19:22 56.8 °F 50.4 °F 30.15 in Calm     79 % 0.00 in
19:25 56.7 °F 50.6 °F 30.15 in Calm     80 % 0.00 in
19:27 56.5 °F 50.4 °F 30.15 in Calm     80 % 0.00 in
19:32 56.2 °F 50.4 °F 30.15 in Calm     81 % 0.00 in
19:37 55.9 °F 50.2 °F 30.14 in Calm     81 % 0.00 in
19:39 55.8 °F 50.1 °F 30.14 in Calm     81 % 0.00 in
19:44 55.5 °F 50.1 °F 30.14 in Calm     82 % 0.00 in
19:49 55.2 °F 49.8 °F 30.15 in Calm     82 % 0.00 in
19:59 54.6 °F 49.9 °F 30.15 in Calm     84 % 0.00 in
20:09 54.1 °F 49.7 °F 30.15 in Calm     85 % 0.00 in
20:19 54.3 °F 49.6 °F 30.15 in Calm     84 % 0.00 in
20:34 54.7 °F 49.6 °F 30.15 in Calm     83 % 0.00 in
20:39 54.5 °F 49.8 °F 30.15 in Calm     84 % 0.00 in
20:44 54.1 °F 49.4 °F 30.15 in Calm     84 % 0.00 in
20:55 53.7 °F 49.6 °F 30.15 in Calm     86 % 0.00 in
21:00 53.6 °F 49.2 °F 30.15 in Calm     85 % 0.00 in
21:05 53.6 °F 49.2 °F 30.15 in Calm     85 % 0.00 in
21:15 53.1 °F 49.0 °F 30.16 in Calm     86 % 0.00 in
21:20 52.9 °F 49.1 °F 30.16 in Calm     87 % 0.00 in
21:25 52.7 °F 48.9 °F 30.16 in Calm     87 % 0.00 in
21:30 52.4 °F 48.6 °F 30.17 in Calm     87 % 0.00 in
21:35 52.4 °F 48.9 °F 30.16 in Calm     88 % 0.00 in
21:40 52.2 °F 48.8 °F 30.16 in Calm     88 % 0.00 in
21:50 51.9 °F 48.5 °F 30.16 in Calm     88 % 0.00 in
21:55 51.8 °F 48.7 °F 30.16 in Calm     89 % 0.00 in
22:00 52.0 °F 49.2 °F 30.17 in Calm     90 % 0.00 in
22:05 52.2 °F 49.1 °F 30.17 in Calm     89 % 0.00 in
22:20 52.0 °F 48.9 °F 30.17 in Calm     89 % 0.00 in
22:25 52.1 °F 49.0 °F 30.17 in Calm     89 % 0.00 in
22:30 52.0 °F 48.9 °F 30.17 in Calm     89 % 0.00 in
22:35 52.0 °F 48.9 °F 30.17 in Calm     89 % 0.00 in
22:40 52.2 °F 49.1 °F 30.17 in Calm     89 % 0.00 in
22:45 52.4 °F 48.9 °F 30.17 in Calm     88 % 0.00 in
22:50 52.6 °F 49.1 °F 30.17 in Calm     88 % 0.00 in
22:55 52.8 °F 49.0 °F 30.17 in Calm   0.1 mph 87 % 0.00 in
23:00 53.0 °F 49.2 °F 30.17 in NNW 1.2 mph 1.2 mph 87 % 0.00 in
23:15 53.5 °F 49.4 °F 30.16 in NNW 1.2 mph   86 % 0.00 in
23:20 53.7 °F 49.3 °F 30.16 in Calm     85 % 0.00 in
23:30 53.9 °F 49.2 °F 30.16 in NNW 1.0 mph   84 % 0.00 in
23:45 53.1 °F 48.7 °F 30.16 in Calm     85 % 0.00 in
23:50 52.6 °F 48.5 °F 30.16 in Calm     86 % 0.00 in
23:55 52.2 °F 48.4 °F 30.15 in Calm     87 % 0.00 in
Park Place, Exeter, Tulare County, California, USA
Compliments of Weather Underground - 2.5 mb